createdAt,value
2018-04-30T00:01:55.419Z,11.70
2018-04-30T00:04:23.997Z,9.60
2018-04-30T00:06:52.405Z,8.07
2018-04-30T00:09:20.485Z,9.73
2018-04-30T00:11:50.195Z,12.30
2018-04-30T00:14:18.267Z,8.37
2018-04-30T00:16:47.369Z,16.00
2018-04-30T00:19:15.558Z,10.37
2018-04-30T00:21:44.193Z,11.50
2018-04-30T00:24:11.914Z,11.53
2018-04-30T00:26:42.891Z,10.47
2018-04-30T00:29:11.344Z,11.73
2018-04-30T00:31:42.588Z,12.73
2018-04-30T00:34:10.621Z,7.57
2018-04-30T00:36:39.717Z,12.70
2018-04-30T00:39:07.372Z,6.90
2018-04-30T00:41:37.480Z,10.60
2018-04-30T00:44:05.511Z,9.70
2018-04-30T00:46:35.951Z,10.97
2018-04-30T00:49:03.645Z,11.33
2018-04-30T00:51:34.524Z,10.03
2018-04-30T00:54:03.008Z,11.17
2018-04-30T00:56:32.441Z,9.57
2018-04-30T00:59:00.482Z,12.67
2018-04-30T01:01:29.322Z,7.33
2018-04-30T01:03:56.956Z,8.03
2018-04-30T01:06:25.594Z,11.17
2018-04-30T01:08:53.237Z,9.63
2018-04-30T01:11:22.331Z,10.17
2018-04-30T01:13:50.734Z,13.37
2018-04-30T01:16:20.920Z,17.47
2018-04-30T01:18:49.721Z,11.10
2018-04-30T01:21:18.543Z,18.30
2018-04-30T01:23:47.065Z,12.13
2018-04-30T01:26:14.735Z,9.17
2018-04-30T01:28:42.819Z,13.77
2018-04-30T01:31:11.898Z,13.87
2018-04-30T01:33:39.583Z,14.53
2018-04-30T01:36:09.699Z,14.50
2018-04-30T01:38:38.142Z,11.37
2018-04-30T01:41:06.792Z,13.30
2018-04-30T01:43:35.321Z,13.90
2018-04-30T01:46:04.369Z,12.77
2018-04-30T01:48:32.815Z,13.27
2018-04-30T01:51:00.504Z,15.30
2018-04-30T01:53:28.162Z,13.27
2018-04-30T01:55:55.843Z,12.63
2018-04-30T01:58:23.920Z,12.77
2018-04-30T02:00:53.946Z,16.37
2018-04-30T02:03:22.360Z,14.67
2018-04-30T02:05:50.834Z,13.83
2018-04-30T02:08:19.259Z,12.60
2018-04-30T02:10:48.733Z,12.77
2018-04-30T02:13:16.437Z,14.60
2018-04-30T02:15:44.475Z,16.97
2018-04-30T02:18:12.935Z,13.73
2018-04-30T02:20:41.355Z,17.80
2018-04-30T02:23:09.414Z,10.40
2018-04-30T02:25:37.890Z,14.47
2018-04-30T02:28:05.599Z,13.80
2018-04-30T02:30:33.836Z,12.60
2018-04-30T02:33:01.421Z,11.57
2018-04-30T02:35:31.952Z,12.90
2018-04-30T02:38:00.417Z,15.20
2018-04-30T02:40:29.932Z,13.30
2018-04-30T02:42:58.023Z,12.37
2018-04-30T02:45:28.726Z,17.63
2018-04-30T02:47:56.776Z,11.63
2018-04-30T02:50:36.178Z,17.90
2018-04-30T02:53:03.861Z,13.93
2018-04-30T02:55:31.987Z,11.63
2018-04-30T02:58:00.017Z,13.97
2018-04-30T03:00:28.647Z,11.87
2018-04-30T03:02:57.086Z,14.07
2018-04-30T03:05:31.513Z,12.83
2018-04-30T03:07:59.145Z,17.10
2018-04-30T03:10:28.835Z,11.93
2018-04-30T03:12:57.290Z,11.90
2018-04-30T03:15:29.189Z,12.53
2018-04-30T03:17:57.230Z,13.67
2018-04-30T03:20:28.105Z,14.03
2018-04-30T03:22:56.152Z,14.53
2018-04-30T03:25:23.835Z,13.87
2018-04-30T03:27:52.648Z,14.53
2018-04-30T03:30:24.684Z,13.80
2018-04-30T03:32:52.371Z,16.63
2018-04-30T03:35:20.838Z,15.03
2018-04-30T03:37:49.277Z,17.87
2018-04-30T03:40:17.035Z,15.17
2018-04-30T03:42:45.081Z,14.50
2018-04-30T03:45:13.153Z,12.60
2018-04-30T03:47:40.779Z,14.40
2018-04-30T03:50:09.903Z,13.03
2018-04-30T03:52:37.970Z,14.33
2018-04-30T03:55:05.623Z,18.33
2018-04-30T03:57:34.079Z,15.73
2018-04-30T04:00:03.958Z,15.10
2018-04-30T04:02:45.911Z,14.97
2018-04-30T04:05:25.888Z,16.37
2018-04-30T04:07:53.529Z,18.00
2018-04-30T04:10:21.254Z,11.20
2018-04-30T04:12:49.297Z,16.40
2018-04-30T04:15:19.155Z,15.60
2018-04-30T04:17:46.827Z,18.43
2018-04-30T04:20:15.348Z,13.33
2018-04-30T04:22:43.761Z,13.10
2018-04-30T04:25:11.425Z,14.70
2018-04-30T04:27:40.250Z,15.03
2018-04-30T04:30:09.620Z,15.57
2018-04-30T04:32:37.808Z,14.17
2018-04-30T04:35:09.537Z,15.57
2018-04-30T04:37:38.301Z,17.83
2018-04-30T04:40:06.770Z,15.43
2018-04-30T04:42:35.191Z,15.77
2018-04-30T04:45:04.309Z,15.67
2018-04-30T04:47:32.011Z,15.20
2018-04-30T04:50:00.446Z,14.10
2018-04-30T04:52:28.894Z,12.43
2018-04-30T04:54:56.595Z,18.30
2018-04-30T04:57:24.253Z,13.07
2018-04-30T04:59:52.950Z,15.57
2018-04-30T05:02:21.445Z,14.33
2018-04-30T05:04:53.293Z,12.30
2018-04-30T05:07:21.730Z,16.20
2018-04-30T05:09:52.236Z,15.20
2018-04-30T05:12:20.285Z,16.90
2018-04-30T05:14:47.916Z,14.33
2018-04-30T05:17:15.603Z,13.80
2018-04-30T05:19:44.226Z,15.50
2018-04-30T05:22:11.912Z,15.70
2018-04-30T05:24:41.417Z,13.57
2018-04-30T05:27:09.073Z,15.07
2018-04-30T05:29:41.928Z,11.07
2018-04-30T05:32:10.389Z,13.70
2018-04-30T05:34:40.377Z,11.30
2018-04-30T05:37:09.212Z,12.33
2018-04-30T05:39:38.731Z,11.77
2018-04-30T05:42:07.336Z,14.20
2018-04-30T05:44:36.798Z,16.20
2018-04-30T05:47:05.260Z,15.80
2018-04-30T05:49:36.871Z,12.87
2018-04-30T05:52:05.660Z,14.17
2018-04-30T05:54:34.886Z,13.83
2018-04-30T05:57:02.533Z,15.60
2018-04-30T05:59:31.099Z,13.00
2018-04-30T06:01:59.549Z,13.77
2018-04-30T06:04:29.006Z,13.23
2018-04-30T06:06:57.125Z,11.90
2018-04-30T06:09:25.555Z,10.83
2018-04-30T06:11:54.081Z,13.23
2018-04-30T06:14:24.450Z,13.53
2018-04-30T06:16:52.118Z,14.07
2018-04-30T06:19:21.829Z,17.57
2018-04-30T06:21:50.840Z,15.67
2018-04-30T06:24:19.822Z,18.07
2018-04-30T06:26:47.954Z,12.90
2018-04-30T06:29:21.393Z,16.20
2018-04-30T06:31:49.806Z,14.57
2018-04-30T06:34:18.659Z,17.33
2018-04-30T06:36:47.063Z,16.97
2018-04-30T06:39:16.579Z,17.90
2018-04-30T06:41:45.026Z,15.97
2018-04-30T06:44:14.710Z,18.30
2018-04-30T06:46:42.403Z,16.77
2018-04-30T06:49:11.095Z,19.07
2018-04-30T06:51:38.739Z,19.33
2018-04-30T06:54:07.230Z,21.87
2018-04-30T06:56:34.887Z,20.77
2018-04-30T06:59:03.582Z,19.50
2018-04-30T07:01:32.752Z,20.13
2018-04-30T07:04:00.480Z,21.27
2018-04-30T07:06:29.951Z,21.70
2018-04-30T07:09:00.393Z,19.73
2018-04-30T07:11:28.514Z,19.20
2018-04-30T07:14:02.084Z,20.53
2018-04-30T07:16:30.583Z,19.53
2018-04-30T07:18:59.003Z,18.40
2018-04-30T07:21:27.450Z,18.47
2018-04-30T07:23:56.893Z,16.00
2018-04-30T07:26:24.581Z,17.67
2018-04-30T07:28:56.641Z,17.17
2018-04-30T07:31:25.064Z,14.63
2018-04-30T07:33:53.164Z,14.50
2018-04-30T07:36:21.566Z,14.13
2018-04-30T07:38:50.216Z,12.37
2018-04-30T07:41:17.870Z,10.27
2018-04-30T07:43:46.960Z,13.53
2018-04-30T07:46:15.400Z,8.77
2018-04-30T07:48:43.827Z,11.50
2018-04-30T07:51:11.479Z,7.83
2018-04-30T07:53:40.918Z,10.03
2018-04-30T07:56:09.328Z,4.00
2018-04-30T07:58:38.803Z,4.60
2018-04-30T08:01:06.475Z,3.93
2018-04-30T08:03:41.845Z,1.80
2018-04-30T08:06:09.552Z,3.93
2018-04-30T08:08:40.653Z,4.20
2018-04-30T08:11:09.095Z,3.23
2018-04-30T08:13:40.144Z,2.70
2018-04-30T08:16:08.202Z,2.27
2018-04-30T08:18:35.917Z,4.23
2018-04-30T08:21:03.603Z,2.47
2018-04-30T08:23:31.305Z,5.87
2018-04-30T08:25:59.482Z,2.70
2018-04-30T08:28:34.961Z,2.80
2018-04-30T08:31:03.408Z,2.77
2018-04-30T08:33:32.920Z,3.03
2018-04-30T08:36:01.308Z,1.97
2018-04-30T08:38:36.376Z,2.40
2018-04-30T08:41:04.029Z,1.30
2018-04-30T08:43:35.402Z,4.50
2018-04-30T08:46:03.125Z,1.43
2018-04-30T08:48:39.354Z,0.87
2018-04-30T08:51:07.792Z,0.93
2018-04-30T08:53:36.227Z,1.10
2018-04-30T08:56:04.774Z,0.60
2018-04-30T08:58:33.256Z,1.73
2018-04-30T09:01:00.924Z,0.60
2018-04-30T09:03:36.499Z,2.47
2018-04-30T09:06:04.968Z,0.80
2018-04-30T09:08:33.396Z,4.07
2018-04-30T09:11:01.112Z,1.53
2018-04-30T09:13:33.932Z,3.03
2018-04-30T09:16:01.633Z,1.77
2018-04-30T09:18:30.676Z,0.63
2018-04-30T09:20:58.329Z,0.93
2018-04-30T09:23:26.416Z,1.17
2018-04-30T09:25:54.078Z,0.63
2018-04-30T09:28:22.708Z,0.97
2018-04-30T09:30:51.133Z,0.50
2018-04-30T09:33:19.389Z,2.20
2018-04-30T09:35:48.562Z,0.80
2018-04-30T09:38:18.762Z,2.83
2018-04-30T09:40:47.155Z,1.03
2018-04-30T09:43:17.275Z,0.50
2018-04-30T09:45:45.337Z,1.23
2018-04-30T09:48:13.993Z,0.60
2018-04-30T09:50:41.664Z,0.57
2018-04-30T09:53:09.762Z,2.60
2018-04-30T09:55:37.858Z,0.97
2018-04-30T09:58:06.891Z,1.50
2018-04-30T10:00:35.322Z,1.23
2018-04-30T10:03:04.520Z,0.83
2018-04-30T10:05:33.353Z,2.87
2018-04-30T10:08:02.513Z,2.20
2018-04-30T10:10:30.601Z,1.00
2018-04-30T10:12:59.011Z,0.73
2018-04-30T10:15:27.585Z,0.87
2018-04-30T10:17:56.880Z,1.80
2018-04-30T10:20:24.960Z,2.00
2018-04-30T10:22:54.411Z,0.70
2018-04-30T10:25:22.982Z,0.77
2018-04-30T10:27:51.439Z,1.07
2018-04-30T10:30:19.071Z,0.53
2018-04-30T10:32:46.815Z,2.07
2018-04-30T10:35:15.243Z,0.80
2018-04-30T10:37:44.947Z,1.97
2018-04-30T10:40:12.627Z,1.50
2018-04-30T10:42:42.701Z,3.47
2018-04-30T10:45:11.533Z,2.57
2018-04-30T10:47:39.630Z,0.90
2018-04-30T10:50:07.680Z,1.73
2018-04-30T10:52:36.356Z,1.27
2018-04-30T10:55:04.802Z,0.97
2018-04-30T10:57:32.534Z,0.80
2018-04-30T11:00:00.578Z,0.80
2018-04-30T11:02:29.222Z,1.73
2018-04-30T11:04:57.289Z,1.00
2018-04-30T11:07:26.450Z,0.60
2018-04-30T11:09:55.353Z,0.90
2018-04-30T11:12:24.448Z,2.23
2018-04-30T11:14:52.851Z,2.00
2018-04-30T11:17:23.766Z,2.97
2018-04-30T11:19:51.415Z,1.00
2018-04-30T11:22:24.884Z,2.77
2018-04-30T11:24:52.548Z,1.50
2018-04-30T11:27:20.290Z,1.20
2018-04-30T11:29:48.752Z,1.87
2018-04-30T11:32:16.472Z,2.90
2018-04-30T11:34:44.155Z,2.23
2018-04-30T11:37:13.170Z,1.10
2018-04-30T11:39:41.625Z,1.00
2018-04-30T11:42:13.578Z,1.03
2018-04-30T11:44:41.988Z,3.67
2018-04-30T11:47:13.806Z,0.80
2018-04-30T11:49:42.602Z,1.63
2018-04-30T11:52:12.718Z,0.97
2018-04-30T11:54:41.898Z,1.47
2018-04-30T11:57:10.032Z,1.63
2018-04-30T11:59:38.512Z,2.00
2018-04-30T12:02:06.995Z,1.60
2018-04-30T12:04:35.922Z,1.40
2018-04-30T12:07:05.483Z,1.13
2018-04-30T12:09:33.915Z,3.23
2018-04-30T12:12:05.292Z,2.50
2018-04-30T12:14:34.131Z,1.50
2018-04-30T12:17:01.916Z,2.17
2018-04-30T12:19:29.582Z,3.87
2018-04-30T12:21:57.377Z,1.07
2018-04-30T12:24:25.488Z,1.50
2018-04-30T12:26:53.254Z,2.40
2018-04-30T12:29:22.540Z,2.60
2018-04-30T12:31:50.344Z,0.87
2018-04-30T12:34:18.021Z,2.83
2018-04-30T12:36:45.827Z,0.53
2018-04-30T12:39:13.617Z,0.90
2018-04-30T12:41:41.700Z,2.60
2018-04-30T12:44:09.773Z,0.60
2018-04-30T12:46:39.301Z,0.57
2018-04-30T12:49:06.981Z,1.63
2018-04-30T12:51:36.423Z,1.00
2018-04-30T12:54:04.526Z,2.10
2018-04-30T12:56:32.723Z,1.27
2018-04-30T12:59:00.781Z,2.00
2018-04-30T13:01:29.958Z,1.10
2018-04-30T13:03:57.621Z,2.53
2018-04-30T13:06:26.350Z,0.87
2018-04-30T13:08:54.797Z,0.80
2018-04-30T13:11:24.381Z,1.03
2018-04-30T13:13:52.068Z,1.17
2018-04-30T13:16:20.223Z,2.00
2018-04-30T13:18:47.950Z,2.27
2018-04-30T13:21:18.943Z,0.60
2018-04-30T13:23:46.632Z,3.00
2018-04-30T13:26:14.769Z,1.43
2018-04-30T13:28:43.208Z,3.40
2018-04-30T13:31:10.979Z,1.63
2018-04-30T13:33:38.677Z,0.87
2018-04-30T13:36:06.847Z,1.77
2018-04-30T13:38:35.271Z,1.20
2018-04-30T13:41:03.506Z,3.40
2018-04-30T13:43:32.534Z,3.60
2018-04-30T13:46:00.281Z,2.00
2018-04-30T13:48:27.937Z,2.10
2018-04-30T13:50:56.636Z,2.30
2018-04-30T13:53:25.049Z,1.27
2018-04-30T13:55:53.257Z,3.93
2018-04-30T13:58:20.922Z,3.67
2018-04-30T14:00:48.692Z,2.63
2018-04-30T14:03:16.347Z,3.90
2018-04-30T14:05:45.113Z,2.53
2018-04-30T14:08:12.798Z,2.50
2018-04-30T14:10:40.436Z,3.67
2018-04-30T14:13:08.087Z,1.17
2018-04-30T14:15:36.928Z,0.80
2018-04-30T14:18:06.086Z,3.47
2018-04-30T14:20:36.959Z,1.90
2018-04-30T14:23:04.619Z,0.90
2018-04-30T14:25:33.284Z,1.83
2018-04-30T14:28:00.947Z,3.13
2018-04-30T14:30:30.050Z,2.50
2018-04-30T14:32:57.722Z,1.57
2018-04-30T14:35:26.390Z,1.60
2018-04-30T14:37:54.091Z,0.80
2018-04-30T14:40:22.956Z,2.97
2018-04-30T14:42:51.018Z,0.80
2018-04-30T14:45:18.738Z,0.90
2018-04-30T14:47:46.387Z,2.67
2018-04-30T14:50:15.790Z,2.17
2018-04-30T14:52:43.864Z,1.43
2018-04-30T14:55:13.395Z,1.30
2018-04-30T14:57:41.077Z,1.97
2018-04-30T15:00:09.787Z,2.30
2018-04-30T15:02:38.764Z,3.63
2018-04-30T15:05:07.211Z,1.87
2018-04-30T15:07:34.893Z,2.27
2018-04-30T15:10:02.705Z,5.03
2018-04-30T15:12:31.121Z,1.23
2018-04-30T15:14:58.898Z,0.93
2018-04-30T15:17:27.692Z,3.43
2018-04-30T15:19:55.854Z,1.47
2018-04-30T15:22:23.513Z,1.40
2018-04-30T15:24:51.286Z,2.63
2018-04-30T15:27:19.060Z,0.67
2018-04-30T15:29:46.779Z,3.37
2018-04-30T15:32:14.437Z,2.17
2018-04-30T15:34:42.960Z,0.67
2018-04-30T15:37:10.605Z,2.93
2018-04-30T15:39:38.789Z,0.97
2018-04-30T15:42:06.441Z,2.13
2018-04-30T15:44:34.123Z,1.53
2018-04-30T15:47:01.793Z,1.43
2018-04-30T15:49:30.826Z,2.87
2018-04-30T15:51:59.241Z,1.50
2018-04-30T15:54:27.353Z,1.57
2018-04-30T15:56:56.500Z,2.77
2018-04-30T15:59:24.180Z,0.83
2018-04-30T16:01:52.591Z,0.70
2018-04-30T16:04:21.030Z,1.50
2018-04-30T16:06:49.077Z,1.90
2018-04-30T16:09:17.201Z,1.43
2018-04-30T16:11:44.867Z,7.80
2018-04-30T16:14:14.566Z,1.03
2018-04-30T16:16:42.766Z,2.00
2018-04-30T16:19:11.186Z,0.90
2018-04-30T16:21:38.799Z,0.77
2018-04-30T16:24:07.493Z,0.97
2018-04-30T16:26:35.605Z,1.73
2018-04-30T16:29:03.325Z,0.60
2018-04-30T16:31:31.000Z,1.60
2018-04-30T16:33:59.492Z,1.97
2018-04-30T16:36:28.146Z,0.83
2018-04-30T16:39:00.737Z,0.90
2018-04-30T16:41:31.557Z,1.47
2018-04-30T16:44:01.813Z,2.10
2018-04-30T16:46:33.337Z,1.37
2018-04-30T16:49:01.240Z,3.70
2018-04-30T16:51:28.925Z,1.57
2018-04-30T16:53:57.616Z,3.40
2018-04-30T16:56:25.258Z,1.90
2018-04-30T16:58:52.953Z,5.13
2018-04-30T17:01:21.375Z,9.43
2018-04-30T17:03:52.024Z,2.73
2018-04-30T17:06:19.601Z,0.70
2018-04-30T17:08:47.245Z,1.90
2018-04-30T17:11:14.925Z,1.40
2018-04-30T17:13:42.599Z,4.13
2018-04-30T17:16:10.252Z,1.27
2018-04-30T17:18:38.718Z,0.83
2018-04-30T17:21:07.881Z,1.10
2018-04-30T17:23:37.316Z,0.70
2018-04-30T17:26:05.067Z,2.17
2018-04-30T17:28:33.749Z,3.73
2018-04-30T17:31:01.435Z,4.23
2018-04-30T17:33:29.890Z,0.90
2018-04-30T17:35:58.361Z,2.40
2018-04-30T17:38:28.830Z,1.90
2018-04-30T17:40:57.732Z,2.50
2018-04-30T17:43:27.244Z,3.00
2018-04-30T17:45:54.886Z,2.00
2018-04-30T17:48:22.718Z,1.90
2018-04-30T17:50:51.172Z,1.33
2018-04-30T17:53:25.139Z,1.27
2018-04-30T17:55:53.757Z,0.67
2018-04-30T17:58:22.382Z,0.40
2018-04-30T18:00:50.817Z,1.17
2018-04-30T18:03:18.489Z,1.40
2018-04-30T18:05:46.162Z,5.50
2018-04-30T18:08:16.152Z,4.10
2018-04-30T18:10:43.794Z,3.17
2018-04-30T18:13:12.885Z,1.30
2018-04-30T18:15:40.551Z,1.70
2018-04-30T18:18:09.153Z,1.97
2018-04-30T18:20:36.969Z,0.53
2018-04-30T18:23:05.599Z,1.00
2018-04-30T18:25:34.403Z,1.27
2018-04-30T18:28:02.441Z,2.60
2018-04-30T18:30:30.514Z,2.30
2018-04-30T18:33:00.544Z,2.83
2018-04-30T18:35:29.741Z,0.93
2018-04-30T18:37:58.844Z,0.70
2018-04-30T18:40:27.629Z,0.40
2018-04-30T18:43:00.216Z,2.60
2018-04-30T18:45:27.941Z,0.73
2018-04-30T18:47:55.596Z,0.60
2018-04-30T18:50:24.670Z,1.10
2018-04-30T18:52:54.145Z,0.50
2018-04-30T18:55:23.493Z,0.53
2018-04-30T18:57:56.104Z,0.77
2018-04-30T19:00:24.866Z,2.03
2018-04-30T19:02:53.993Z,0.40
2018-04-30T19:05:22.477Z,0.53
2018-04-30T19:07:52.567Z,1.90
2018-04-30T19:10:20.257Z,1.30
2018-04-30T19:12:55.638Z,0.30
2018-04-30T19:15:23.440Z,0.50
2018-04-30T19:17:51.780Z,2.73
2018-04-30T19:20:19.440Z,1.20
2018-04-30T19:22:47.646Z,0.40
2018-04-30T19:25:16.050Z,0.40
2018-04-30T19:27:45.501Z,0.63
2018-04-30T19:30:13.165Z,0.33
2018-04-30T19:32:40.865Z,2.73
2018-04-30T19:35:08.520Z,0.70
2018-04-30T19:37:36.270Z,0.93
2018-04-30T19:40:04.060Z,0.60
2018-04-30T19:42:32.536Z,1.50
2018-04-30T19:45:00.993Z,0.83
2018-04-30T19:47:29.507Z,0.40
2018-04-30T19:49:57.142Z,0.97
2018-04-30T19:52:25.640Z,0.30
2018-04-30T19:54:53.292Z,0.80
2018-04-30T19:57:22.124Z,0.40
2018-04-30T19:59:49.815Z,1.00
2018-04-30T20:02:20.282Z,1.30
2018-04-30T20:04:47.957Z,1.70
2018-04-30T20:07:15.986Z,1.23
2018-04-30T20:09:44.434Z,0.73
2018-04-30T20:12:13.264Z,0.30
2018-04-30T20:14:40.935Z,1.13
2018-04-30T20:17:08.600Z,1.10
2018-04-30T20:19:36.811Z,0.40
2018-04-30T20:22:05.538Z,0.70
2018-04-30T20:24:33.984Z,0.30
2018-04-30T20:27:02.955Z,0.50
2018-04-30T20:29:31.126Z,1.87
2018-04-30T20:31:59.012Z,1.70
2018-04-30T20:34:27.666Z,0.47
2018-04-30T20:36:55.441Z,0.30
2018-04-30T20:39:24.464Z,0.83
2018-04-30T20:41:55.177Z,0.50
2018-04-30T20:44:23.268Z,0.50
2018-04-30T20:46:54.794Z,1.70
2018-04-30T20:49:22.465Z,0.40
2018-04-30T20:51:58.734Z,0.77
2018-04-30T20:54:26.442Z,2.67
2018-04-30T20:56:55.735Z,0.97
2018-04-30T20:59:24.267Z,0.47
2018-04-30T21:01:52.676Z,0.83
2018-04-30T21:04:21.107Z,0.40
2018-04-30T21:06:49.269Z,0.40
2018-04-30T21:09:18.441Z,0.70
2018-04-30T21:11:46.234Z,0.30
2018-04-30T21:14:14.646Z,2.10
2018-04-30T21:16:42.452Z,0.40
2018-04-30T21:19:10.108Z,0.50
2018-04-30T21:21:39.438Z,0.57
2018-04-30T21:24:07.890Z,0.30
2018-04-30T21:26:35.720Z,0.60
2018-04-30T21:29:03.481Z,2.30
2018-04-30T21:31:32.667Z,1.47
2018-04-30T21:34:00.324Z,1.03
2018-04-30T21:36:28.484Z,0.27
2018-04-30T21:38:57.501Z,1.87
2018-04-30T21:41:29.347Z,1.10
2018-04-30T21:43:57.416Z,2.00
2018-04-30T21:46:25.135Z,1.73
2018-04-30T21:48:52.775Z,1.10
2018-04-30T21:51:21.295Z,1.10
2018-04-30T21:53:48.970Z,0.70
2018-04-30T21:56:19.874Z,0.47
2018-04-30T21:58:48.598Z,0.80
2018-04-30T22:01:16.377Z,0.50
2018-04-30T22:03:44.420Z,0.47
2018-04-30T22:06:12.948Z,0.50
2018-04-30T22:08:40.587Z,0.63
2018-04-30T22:11:09.828Z,0.67
2018-04-30T22:13:38.831Z,0.57
2018-04-30T22:16:12.801Z,0.43
2018-04-30T22:18:40.488Z,0.60
2018-04-30T22:21:09.024Z,0.53
2018-04-30T22:23:37.039Z,0.50
2018-04-30T22:26:05.560Z,2.33
2018-04-30T22:28:33.230Z,3.13
2018-04-30T22:31:01.006Z,1.37
2018-04-30T22:33:29.051Z,4.13
2018-04-30T22:35:58.964Z,2.50
2018-04-30T22:38:27.883Z,1.00
2018-04-30T22:40:59.805Z,0.20
2018-04-30T22:43:27.609Z,2.57
2018-04-30T22:45:55.754Z,2.43
2018-04-30T22:48:23.393Z,0.30
2018-04-30T22:50:55.086Z,1.97
2018-04-30T22:53:23.113Z,1.93
2018-04-30T22:55:51.658Z,1.80
2018-04-30T22:58:19.331Z,1.20
2018-04-30T23:00:47.484Z,0.70
2018-04-30T23:03:15.125Z,0.93
2018-04-30T23:05:42.938Z,0.63
2018-04-30T23:08:11.329Z,6.23
2018-04-30T23:10:39.836Z,1.60
2018-04-30T23:13:09.010Z,0.50
2018-04-30T23:15:38.084Z,0.67
2018-04-30T23:18:05.761Z,3.50
2018-04-30T23:20:34.313Z,0.30
2018-04-30T23:23:03.450Z,2.10
2018-04-30T23:25:31.530Z,4.87
2018-04-30T23:27:59.928Z,0.40
2018-04-30T23:30:28.843Z,0.40
2018-04-30T23:32:56.877Z,0.63
2018-04-30T23:35:24.695Z,1.80
2018-04-30T23:37:52.753Z,0.20
2018-04-30T23:40:21.715Z,0.30
2018-04-30T23:42:49.335Z,2.13
2018-04-30T23:45:21.854Z,2.57
2018-04-30T23:47:49.908Z,0.30
2018-04-30T23:50:19.430Z,0.93
2018-04-30T23:52:47.488Z,0.53
2018-04-30T23:55:19.252Z,2.97
2018-04-30T23:57:46.889Z,2.73
